createdAt,value
2018-07-09T00:01:54.772Z,3.67
2018-07-09T00:04:24.877Z,4.20
2018-07-09T00:06:57.367Z,4.80
2018-07-09T00:09:26.679Z,5.63
2018-07-09T00:11:59.096Z,6.37
2018-07-09T00:14:28.385Z,6.13
2018-07-09T00:17:02.110Z,9.50
2018-07-09T00:19:30.754Z,6.87
2018-07-09T00:22:04.046Z,12.77
2018-07-09T00:24:32.509Z,8.37
2018-07-09T00:27:05.864Z,11.90
2018-07-09T00:29:34.176Z,8.47
2018-07-09T00:32:04.013Z,12.97
2018-07-09T00:34:32.813Z,11.70
2018-07-09T00:37:01.022Z,10.13
2018-07-09T00:39:30.062Z,12.33
2018-07-09T00:41:59.185Z,10.83
2018-07-09T00:44:28.171Z,9.33
2018-07-09T00:46:58.491Z,8.47
2018-07-09T00:49:29.460Z,11.03
2018-07-09T00:51:58.640Z,11.87
2018-07-09T00:54:27.659Z,8.03
2018-07-09T00:56:56.700Z,8.43
2018-07-09T00:59:25.233Z,7.67
2018-07-09T01:01:53.722Z,9.00
2018-07-09T01:04:26.298Z,9.13
2018-07-09T01:06:55.171Z,8.87
2018-07-09T01:09:36.398Z,7.93
2018-07-09T01:12:11.119Z,8.20
2018-07-09T01:14:40.155Z,6.60
2018-07-09T01:17:08.412Z,8.67
2018-07-09T01:19:37.113Z,7.73
2018-07-09T01:22:06.825Z,8.30
2018-07-09T01:24:35.458Z,7.07
2018-07-09T01:27:05.085Z,10.60
2018-07-09T01:29:37.392Z,8.60
2018-07-09T01:32:07.263Z,6.37
2018-07-09T01:34:41.119Z,9.70
2018-07-09T01:37:10.303Z,5.83
2018-07-09T01:39:42.879Z,8.77
2018-07-09T01:42:11.463Z,8.50
2018-07-09T01:44:52.599Z,7.27
2018-07-09T01:47:21.389Z,5.30
2018-07-09T01:49:50.820Z,7.47
2018-07-09T01:52:19.588Z,11.40
2018-07-09T01:54:50.193Z,10.57
2018-07-09T01:57:18.892Z,6.30
2018-07-09T01:59:53.155Z,6.03
2018-07-09T02:02:22.197Z,7.03
2018-07-09T02:04:57.067Z,9.90
2018-07-09T02:07:25.543Z,7.30
2018-07-09T02:09:57.885Z,9.47
2018-07-09T02:12:26.351Z,5.60
2018-07-09T02:14:59.373Z,8.17
2018-07-09T02:17:27.948Z,11.93
2018-07-09T02:22:32.038Z,13.87
2018-07-09T02:25:05.708Z,7.70
2018-07-09T02:29:56.447Z,8.20
2018-07-09T02:32:25.974Z,9.63
2018-07-09T02:34:55.240Z,6.40
2018-07-09T02:37:23.739Z,6.97
2018-07-09T02:39:52.453Z,9.67
2018-07-09T02:42:20.635Z,8.53
2018-07-09T02:44:49.075Z,8.23
2018-07-09T02:47:18.739Z,9.07
2018-07-09T02:49:47.437Z,11.93
2018-07-09T02:52:20.051Z,12.47
2018-07-09T02:54:48.277Z,12.30
2018-07-09T02:57:20.444Z,14.03
2018-07-09T02:59:48.905Z,11.57
2018-07-09T03:02:17.108Z,14.57
2018-07-09T03:04:46.259Z,14.50
2018-07-09T03:07:14.726Z,14.50
2018-07-09T03:09:42.933Z,10.60
2018-07-09T03:12:13.525Z,10.67
2018-07-09T03:14:42.293Z,12.77
2018-07-09T03:17:11.003Z,11.17
2018-07-09T03:19:39.198Z,16.90
2018-07-09T03:22:07.693Z,12.17
2018-07-09T03:24:35.868Z,8.70
2018-07-09T03:27:04.031Z,13.33
2018-07-09T03:29:37.601Z,14.27
2018-07-09T03:32:06.355Z,15.37
2018-07-09T03:34:39.439Z,14.43
2018-07-09T03:37:08.804Z,7.93
2018-07-09T03:39:42.636Z,12.27
2018-07-09T03:42:11.096Z,14.10
2018-07-09T03:44:48.301Z,11.03
2018-07-09T03:47:18.227Z,12.40
2018-07-09T03:49:48.687Z,9.93
2018-07-09T03:52:18.422Z,16.40
2018-07-09T03:54:49.790Z,16.77
2018-07-09T03:57:18.732Z,14.40
2018-07-09T03:59:51.128Z,15.17
2018-07-09T04:02:20.031Z,10.27
2018-07-09T04:04:48.879Z,11.13
2018-07-09T04:07:17.189Z,11.47
2018-07-09T04:09:45.376Z,14.50
2018-07-09T04:12:13.887Z,17.83
2018-07-09T04:14:42.099Z,14.87
2018-07-09T04:17:11.085Z,17.23
2018-07-09T04:19:39.651Z,16.17
2018-07-09T04:22:08.388Z,13.37
2018-07-09T04:24:36.603Z,12.20
2018-07-09T04:27:10.955Z,14.63
2018-07-09T04:29:40.115Z,17.43
2018-07-09T04:32:12.759Z,13.40
2018-07-09T04:34:42.399Z,18.73
2018-07-09T04:37:13.593Z,17.20
2018-07-09T04:39:42.103Z,16.13
2018-07-09T04:42:23.980Z,15.23
2018-07-09T04:44:52.151Z,15.80
2018-07-09T04:47:20.762Z,15.63
2018-07-09T04:49:49.689Z,14.50
2018-07-09T04:52:21.455Z,21.83
2018-07-09T04:54:49.876Z,16.43
2018-07-09T04:57:22.688Z,12.37
2018-07-09T04:59:52.033Z,17.90
2018-07-09T05:02:26.964Z,16.77
2018-07-09T05:04:55.122Z,21.93
2018-07-09T05:07:28.176Z,18.40
2018-07-09T05:09:56.732Z,16.53
2018-07-09T05:12:31.836Z,20.07
2018-07-09T05:15:01.268Z,18.57
2018-07-09T05:17:33.370Z,19.47
2018-07-09T05:22:36.589Z,23.53
2018-07-09T05:25:06.574Z,20.27
2018-07-09T05:27:39.010Z,27.30
2018-07-09T05:30:07.560Z,22.43
2018-07-09T05:32:49.875Z,29.33
2018-07-09T05:35:19.085Z,20.13
2018-07-09T05:37:48.391Z,21.90
2018-07-09T05:40:17.054Z,21.23
2018-07-09T05:42:45.487Z,18.27
2018-07-09T05:47:45.882Z,17.47
2018-07-09T05:50:14.183Z,14.87
2018-07-09T05:52:44.066Z,13.03
2018-07-09T05:55:20.953Z,11.13
2018-07-09T05:57:55.356Z,11.50
2018-07-09T06:00:23.539Z,9.63
2018-07-09T06:02:55.944Z,12.97
2018-07-09T06:05:24.211Z,13.18
2018-07-09T06:07:55.252Z,14.90
2018-07-09T06:10:25.360Z,10.88
2018-07-09T06:13:02.209Z,12.50
2018-07-09T06:15:32.636Z,13.65
2018-07-09T06:18:05.857Z,12.33
2018-07-09T06:20:37.998Z,13.80
2018-07-09T06:23:11.601Z,10.45
2018-07-09T06:25:41.923Z,13.62
2018-07-09T06:28:14.808Z,13.32
2018-07-09T06:30:44.095Z,11.00
2018-07-09T06:33:14.816Z,9.23
2018-07-09T06:35:44.045Z,13.25
2018-07-09T06:38:26.285Z,19.87
2018-07-09T06:40:56.674Z,13.45
2018-07-09T06:43:25.761Z,12.75
2018-07-09T06:45:57.724Z,15.10
2018-07-09T06:48:27.071Z,9.55
2018-07-09T06:50:58.792Z,10.80
2018-07-09T06:53:29.217Z,6.55
2018-07-09T06:55:59.256Z,10.43
2018-07-09T06:58:29.864Z,11.65
2018-07-09T07:00:58.860Z,11.53
2018-07-09T07:03:28.362Z,13.13
2018-07-09T07:05:58.376Z,15.10
2018-07-09T07:08:32.093Z,17.10
2018-07-09T07:11:02.202Z,12.95
2018-07-09T07:13:34.357Z,17.17
2018-07-09T07:16:03.569Z,10.93
2018-07-09T07:18:44.793Z,14.00
2018-07-09T07:23:38.021Z,12.60
2018-07-09T07:26:09.068Z,12.98
2018-07-09T07:28:43.294Z,13.95
2018-07-09T07:31:13.284Z,12.40
2018-07-09T07:33:44.755Z,25.12
2018-07-09T07:36:15.930Z,14.47
2018-07-09T07:38:49.491Z,11.57
2018-07-09T07:41:19.210Z,14.13
2018-07-09T07:43:53.208Z,9.28
2018-07-09T07:46:24.313Z,13.18
2018-07-09T07:48:56.229Z,17.15
2018-07-09T07:51:28.300Z,9.98
2018-07-09T07:53:59.227Z,8.15
2018-07-09T07:56:29.748Z,8.35
2018-07-09T07:59:01.407Z,12.90
2018-07-09T08:01:31.427Z,10.80
2018-07-09T08:04:02.941Z,11.15
2018-07-09T08:06:34.027Z,10.72
2018-07-09T08:09:05.269Z,9.05
2018-07-09T08:11:48.560Z,15.60
2018-07-09T08:14:06.534Z,12.50
2018-07-09T08:16:34.768Z,7.80
2018-07-09T08:19:09.155Z,12.45
2018-07-09T08:21:37.740Z,8.90
2018-07-09T08:24:10.860Z,9.78
2018-07-09T08:26:39.717Z,15.08
2018-07-09T08:29:14.266Z,11.93
2018-07-09T08:31:42.946Z,8.33
2018-07-09T08:34:24.285Z,9.38
2018-07-09T08:36:52.519Z,10.32
2018-07-09T08:39:21.182Z,10.08
2018-07-09T08:41:51.976Z,8.43
2018-07-09T08:44:22.572Z,9.75
2018-07-09T08:46:51.577Z,11.15
2018-07-09T08:49:23.844Z,8.75
2018-07-09T08:51:54.324Z,8.13
2018-07-09T08:54:25.384Z,12.13
2018-07-09T08:56:54.886Z,7.35
2018-07-09T08:59:35.904Z,11.35
2018-07-09T09:02:04.535Z,8.85
2018-07-09T09:04:33.118Z,8.45
2018-07-09T09:07:03.175Z,7.62
2018-07-09T09:09:33.034Z,9.30
2018-07-09T09:12:02.172Z,8.63
2018-07-09T09:14:43.860Z,11.50
2018-07-09T09:17:15.684Z,9.55
2018-07-09T09:19:46.668Z,9.55
2018-07-09T09:22:14.919Z,8.70
2018-07-09T09:24:43.336Z,5.58
2018-07-09T09:27:13.644Z,6.75
2018-07-09T09:29:42.575Z,9.58
2018-07-09T09:32:11.452Z,10.43
2018-07-09T09:34:45.664Z,11.33
2018-07-09T09:37:14.653Z,5.92
2018-07-09T09:39:48.215Z,6.70
2018-07-09T09:42:19.427Z,9.95
2018-07-09T09:44:51.377Z,7.70
2018-07-09T09:47:20.167Z,11.75
2018-07-09T09:50:11.299Z,5.65
2018-07-09T09:52:40.648Z,9.20
2018-07-09T09:55:11.347Z,7.75
2018-07-09T09:57:42.255Z,10.38
2018-07-09T10:00:13.009Z,9.15
2018-07-09T10:02:41.644Z,9.45
2018-07-09T10:05:12.247Z,11.05
2018-07-09T10:07:41.481Z,8.40
2018-07-09T10:10:10.007Z,7.90
2018-07-09T10:12:39.004Z,8.25
2018-07-09T10:15:10.932Z,8.00
2018-07-09T10:17:39.169Z,7.30
2018-07-09T10:20:21.161Z,9.95
2018-07-09T10:22:51.813Z,9.95
2018-07-09T10:25:21.800Z,6.25
2018-07-09T10:27:51.044Z,10.25
2018-07-09T10:30:21.563Z,8.08
2018-07-09T10:32:50.311Z,5.65
2018-07-09T10:35:19.986Z,6.85
2018-07-09T10:37:49.175Z,7.08
2018-07-09T10:40:21.894Z,8.15
2018-07-09T10:42:50.098Z,7.33
2018-07-09T10:45:24.258Z,7.67
2018-07-09T10:47:55.304Z,7.47
2018-07-09T10:50:28.984Z,4.42
2018-07-09T10:52:58.384Z,8.23
2018-07-09T10:55:28.096Z,7.72
2018-07-09T10:57:57.583Z,5.97
2018-07-09T11:00:30.583Z,7.20
2018-07-09T11:02:58.915Z,7.58
2018-07-09T11:05:40.084Z,5.62
2018-07-09T11:08:08.304Z,7.58
2018-07-09T11:10:36.512Z,6.28
2018-07-09T11:13:05.175Z,5.50
2018-07-09T11:15:46.167Z,5.37
2018-07-09T11:18:15.735Z,6.80
2018-07-09T11:20:44.637Z,7.70
2018-07-09T11:23:13.578Z,5.72
2018-07-09T11:25:45.606Z,5.17
2018-07-09T11:28:14.307Z,6.50
2018-07-09T11:30:47.688Z,8.05
2018-07-09T11:33:17.710Z,5.50
2018-07-09T11:35:50.897Z,7.85
2018-07-09T11:38:19.989Z,5.33
2018-07-09T11:40:53.497Z,3.12
2018-07-09T11:43:22.077Z,4.20
2018-07-09T11:48:30.591Z,7.12
2018-07-09T11:50:59.775Z,4.37
2018-07-09T11:53:30.315Z,3.15
2018-07-09T11:56:05.886Z,8.00
2018-07-09T11:58:34.673Z,4.17
2018-07-09T12:01:03.575Z,3.35
2018-07-09T12:03:33.144Z,4.33
2018-07-09T12:06:08.563Z,2.90
2018-07-09T12:08:38.699Z,3.70
2018-07-09T12:11:10.613Z,3.45
2018-07-09T12:13:39.172Z,4.83
2018-07-09T12:16:21.225Z,8.33
2018-07-09T12:18:52.889Z,6.58
2018-07-09T12:21:21.130Z,8.15
2018-07-09T12:23:49.385Z,4.40
2018-07-09T12:26:18.382Z,4.58
2018-07-09T12:28:47.154Z,4.20
2018-07-09T12:31:28.200Z,3.75
2018-07-09T12:33:56.840Z,4.28
2018-07-09T12:36:27.068Z,3.83
2018-07-09T12:38:56.470Z,4.30
2018-07-09T12:41:26.566Z,3.65
2018-07-09T12:43:54.776Z,5.65
2018-07-09T12:46:30.160Z,4.10
2018-07-09T12:48:59.676Z,5.53
2018-07-09T12:51:27.934Z,6.10
2018-07-09T12:53:56.877Z,5.15
2018-07-09T12:56:31.101Z,3.20
2018-07-09T12:58:59.911Z,4.42
2018-07-09T13:01:34.239Z,4.45
2018-07-09T13:04:03.691Z,4.30
2018-07-09T13:06:35.000Z,9.03
2018-07-09T13:09:04.674Z,5.67
2018-07-09T13:11:39.254Z,5.40
2018-07-09T13:14:09.078Z,6.03
2018-07-09T13:16:42.105Z,6.05
2018-07-09T13:19:10.878Z,5.28
2018-07-09T13:21:52.708Z,5.37
2018-07-09T13:24:22.184Z,3.87
2018-07-09T13:26:50.926Z,5.15
2018-07-09T13:29:23.624Z,5.10
2018-07-09T13:31:52.244Z,6.08
2018-07-09T13:34:20.734Z,5.67
2018-07-09T13:36:52.295Z,7.42
2018-07-09T13:39:20.611Z,8.00
2018-07-09T13:41:56.356Z,12.30
2018-07-09T13:44:26.920Z,7.90
2018-07-09T13:46:59.148Z,10.53
2018-07-09T13:49:27.893Z,7.35
2018-07-09T13:52:00.035Z,7.17
2018-07-09T13:54:28.703Z,10.03
2018-07-09T13:57:02.111Z,7.33
2018-07-09T13:59:31.524Z,7.33
2018-07-09T14:02:06.711Z,6.60
2018-07-09T14:04:36.224Z,9.03
2018-07-09T14:07:17.684Z,8.05
2018-07-09T14:09:46.731Z,6.65
2018-07-09T14:12:15.661Z,7.40
2018-07-09T14:14:44.610Z,9.98
2018-07-09T14:17:14.008Z,7.95
2018-07-09T14:20:14.567Z,9.18
2018-07-09T14:22:44.060Z,8.03
2018-07-09T14:25:18.550Z,6.70
2018-07-09T14:27:46.783Z,7.17
2018-07-09T14:30:27.908Z,6.37
2018-07-09T14:35:28.135Z,8.98
2018-07-09T14:37:57.254Z,4.83
2018-07-09T14:40:26.712Z,9.48
2018-07-09T14:42:57.279Z,7.33
2018-07-09T14:45:27.175Z,7.97
2018-07-09T14:47:55.595Z,8.48
2018-07-09T14:50:27.661Z,5.75
2018-07-09T14:52:57.166Z,9.48
2018-07-09T14:55:26.218Z,5.20
2018-07-09T14:57:55.843Z,4.37
2018-07-09T15:00:25.156Z,9.05
2018-07-09T15:02:54.302Z,7.45
2018-07-09T15:05:23.996Z,8.23
2018-07-09T15:07:52.723Z,6.05
2018-07-09T15:10:23.188Z,6.85
2018-07-09T15:12:51.429Z,5.00
2018-07-09T15:15:20.217Z,7.58
2018-07-09T15:17:48.588Z,8.18
2018-07-09T15:20:17.110Z,8.75
2018-07-09T15:22:47.309Z,7.50
2018-07-09T15:25:16.444Z,7.10
2018-07-09T15:27:58.194Z,7.95
2018-07-09T15:30:27.828Z,6.55
2018-07-09T15:32:56.712Z,8.65
2018-07-09T15:35:25.524Z,15.18
2018-07-09T15:37:56.018Z,8.10
2018-07-09T15:40:24.631Z,7.83
2018-07-09T15:43:08.000Z,6.95
2018-07-09T15:45:36.579Z,7.70
2018-07-09T15:48:05.217Z,7.00
2018-07-09T15:50:34.210Z,5.03
2018-07-09T15:53:03.180Z,4.62
2018-07-09T15:55:32.785Z,6.87
2018-07-09T15:58:05.188Z,5.45
2018-07-09T16:00:34.451Z,5.95
2018-07-09T16:03:07.880Z,5.25
2018-07-09T16:05:37.080Z,6.42
2018-07-09T16:08:11.965Z,5.97
2018-07-09T16:10:40.655Z,3.85
2018-07-09T16:13:14.828Z,4.12
2018-07-09T16:15:43.250Z,6.80
2018-07-09T16:18:17.118Z,7.37
2018-07-09T16:20:45.944Z,3.40
2018-07-09T16:23:18.883Z,5.40
2018-07-09T16:25:47.397Z,4.72
2018-07-09T16:28:21.738Z,5.42
2018-07-09T16:30:50.381Z,4.12
2018-07-09T16:33:24.413Z,6.47
2018-07-09T16:35:52.783Z,8.00
2018-07-09T16:38:26.566Z,4.25
2018-07-09T16:40:55.168Z,7.72
2018-07-09T16:43:27.684Z,4.30
2018-07-09T16:45:56.248Z,4.97
2018-07-09T16:48:30.092Z,5.17
2018-07-09T16:50:58.857Z,9.00
2018-07-09T16:56:03.496Z,6.80
2018-07-09T16:58:45.186Z,6.70
2018-07-09T17:01:14.903Z,7.58
2018-07-09T17:03:43.167Z,7.47
2018-07-09T17:06:11.421Z,6.40
2018-07-09T17:08:41.008Z,4.40
2018-07-09T17:11:10.558Z,3.72
2018-07-09T17:13:44.375Z,6.85
2018-07-09T17:16:13.127Z,5.50
2018-07-09T17:18:45.243Z,6.62
2018-07-09T17:21:14.305Z,3.80
2018-07-09T17:23:47.832Z,6.78
2018-07-09T17:26:17.179Z,2.98
2018-07-09T17:31:19.480Z,5.17
2018-07-09T17:33:54.699Z,5.37
2018-07-09T17:36:23.101Z,3.27
2018-07-09T17:38:56.864Z,2.85
2018-07-09T17:41:27.723Z,3.05
2018-07-09T17:44:09.567Z,2.55
2018-07-09T17:46:39.101Z,4.60
2018-07-09T17:49:08.612Z,2.35
2018-07-09T17:51:37.345Z,3.10
2018-07-09T17:54:07.167Z,3.65
2018-07-09T17:56:35.573Z,3.12
2018-07-09T18:01:45.681Z,7.87
2018-07-09T18:04:15.066Z,4.87
2018-07-09T18:06:43.694Z,3.20
2018-07-09T18:09:16.152Z,3.75
2018-07-09T18:11:49.160Z,4.23
2018-07-09T18:14:19.104Z,3.92
2018-07-09T18:16:49.215Z,4.60
2018-07-09T18:19:20.456Z,2.40
2018-07-09T18:21:50.000Z,4.03
2018-07-09T18:24:25.201Z,2.90
2018-07-09T18:26:55.184Z,3.77
2018-07-09T18:29:26.005Z,2.93
2018-07-09T18:31:55.211Z,2.70
2018-07-09T18:34:36.938Z,2.90
2018-07-09T18:37:05.556Z,1.63
2018-07-09T18:39:35.015Z,2.70
2018-07-09T18:42:05.244Z,2.50
2018-07-09T18:44:33.463Z,3.37
2018-07-09T18:47:02.208Z,4.73
2018-07-09T18:49:43.735Z,2.73
2018-07-09T18:52:13.190Z,4.07
2018-07-09T18:54:41.864Z,3.13
2018-07-09T18:57:11.289Z,2.77
2018-07-09T18:59:40.007Z,2.00
2018-07-09T19:02:09.551Z,2.73
2018-07-09T19:04:41.056Z,4.93
2018-07-09T19:07:11.599Z,4.00
2018-07-09T19:09:45.682Z,6.47
2018-07-09T19:12:15.960Z,3.60
2018-07-09T19:14:49.595Z,4.60
2018-07-09T19:18:28.220Z,4.50
2018-07-09T19:21:33.908Z,4.83
2018-07-09T19:24:03.036Z,3.60
2018-07-09T19:26:32.681Z,2.83
2018-07-09T19:29:00.957Z,3.00
2018-07-09T19:31:28.900Z,3.17
2018-07-09T19:33:58.252Z,3.13
2018-07-09T19:36:27.101Z,3.30
2018-07-09T19:39:09.581Z,3.43
2018-07-09T19:41:38.429Z,2.67
2018-07-09T19:44:06.915Z,5.27
2018-07-09T19:46:34.883Z,4.57
2018-07-09T19:49:06.016Z,3.50
2018-07-09T19:51:34.595Z,2.57
2018-07-09T19:54:10.356Z,3.67
2018-07-09T19:56:40.843Z,3.20
2018-07-09T19:59:14.182Z,2.67
2018-07-09T20:01:42.210Z,4.67
2018-07-09T20:04:14.536Z,4.70
2018-07-09T20:06:43.693Z,3.23
2018-07-09T20:09:16.369Z,3.53
2018-07-09T20:11:51.248Z,2.73
2018-07-09T20:14:24.167Z,3.83
2018-07-09T20:16:59.624Z,3.40
2018-07-09T20:19:28.168Z,3.97
2018-07-09T20:21:55.520Z,3.30
2018-07-09T20:24:24.317Z,7.17
2018-07-09T20:26:52.773Z,3.33
2018-07-09T20:29:25.567Z,4.30
2018-07-09T20:31:57.573Z,2.70
2018-07-09T20:34:30.151Z,3.13
2018-07-09T20:36:58.107Z,6.33
2018-07-09T20:39:30.603Z,3.47
2018-07-09T20:42:00.079Z,3.20
2018-07-09T20:47:01.517Z,3.70
2018-07-09T20:49:30.800Z,3.50
2018-07-09T20:52:01.930Z,3.80
2018-07-09T20:54:30.375Z,5.83
2018-07-09T20:56:58.487Z,4.50
2018-07-09T20:59:26.893Z,5.00
2018-07-09T21:01:55.738Z,5.43
2018-07-09T21:04:27.444Z,5.10
2018-07-09T21:06:58.880Z,5.03
2018-07-09T21:09:27.993Z,6.33
2018-07-09T21:11:56.301Z,6.57
2018-07-09T21:14:24.168Z,6.57
2018-07-09T21:16:52.535Z,6.23
2018-07-09T21:19:21.975Z,9.33
2018-07-09T21:21:54.346Z,7.20
2018-07-09T21:24:22.701Z,6.63
2018-07-09T21:27:03.563Z,5.37
2018-07-09T21:29:36.803Z,5.27
2018-07-09T21:32:04.800Z,8.10
2018-07-09T21:34:32.675Z,6.27
2018-07-09T21:37:01.568Z,7.07
2018-07-09T21:39:30.447Z,8.03
2018-07-09T21:42:02.651Z,7.23
2018-07-09T21:44:30.943Z,7.60
2018-07-09T21:46:58.308Z,5.53
2018-07-09T21:49:25.934Z,7.07
2018-07-09T21:51:53.843Z,10.60
2018-07-09T21:54:22.543Z,7.30
2018-07-09T21:56:50.204Z,10.80
2018-07-09T21:59:18.515Z,6.70
2018-07-09T22:01:46.101Z,10.23
2018-07-09T22:04:14.848Z,8.33
2018-07-09T22:06:43.100Z,6.73
2018-07-09T22:09:10.731Z,11.87
2018-07-09T22:11:38.372Z,10.30
2018-07-09T22:14:06.200Z,13.37
2018-07-09T22:16:34.721Z,11.53
2018-07-09T22:19:02.354Z,8.83
2018-07-09T22:21:29.998Z,9.47
2018-07-09T22:23:59.400Z,10.30
2018-07-09T22:26:27.264Z,10.07
2018-07-09T22:28:54.870Z,7.07
2018-07-09T22:31:29.087Z,5.70
2018-07-09T22:33:57.879Z,9.50
2018-07-09T22:39:19.209Z,8.60
2018-07-09T22:41:47.956Z,7.07
2018-07-09T22:44:18.463Z,7.73
2018-07-09T22:46:47.456Z,7.83
2018-07-09T22:49:17.473Z,8.53
2018-07-09T22:51:46.624Z,6.23
2018-07-09T22:54:16.109Z,13.20
2018-07-09T22:56:45.858Z,12.63
2018-07-09T22:59:14.289Z,6.43
2018-07-09T23:01:43.597Z,8.07
2018-07-09T23:04:18.843Z,5.83
2018-07-09T23:06:47.439Z,7.97
2018-07-09T23:10:09.921Z,9.17
2018-07-09T23:16:57.193Z,6.83
2018-07-09T23:22:23.173Z,3.77
2018-07-09T23:25:03.460Z,3.27
2018-07-09T23:27:31.560Z,3.60
2018-07-09T23:29:59.203Z,4.37
2018-07-09T23:32:27.360Z,3.50
2018-07-09T23:34:59.818Z,3.53
2018-07-09T23:37:28.484Z,2.43
2018-07-09T23:39:56.667Z,2.93
2018-07-09T23:42:24.283Z,2.73
2018-07-09T23:44:52.150Z,5.23
2018-07-09T23:47:19.759Z,5.80
2018-07-09T23:49:47.372Z,6.37
2018-07-09T23:52:15.823Z,4.27
2018-07-09T23:54:44.189Z,5.27
2018-07-09T23:57:21.068Z,6.90
2018-07-09T23:59:55.085Z,9.67
